createdAt,value
2022-10-17T00:00:36.823Z,6.50
2022-10-17T00:03:03.555Z,6.70
2022-10-17T00:05:30.284Z,6.90
2022-10-17T00:07:57.259Z,6.90
2022-10-17T00:10:24.378Z,6.80
2022-10-17T00:12:51.798Z,6.73
2022-10-17T00:15:20.264Z,6.33
2022-10-17T00:17:46.857Z,6.43
2022-10-17T00:20:14.009Z,6.80
2022-10-17T00:22:41.097Z,6.80
2022-10-17T00:25:08.308Z,6.10
2022-10-17T00:27:40.246Z,6.40
2022-10-17T00:30:10.301Z,6.37
2022-10-17T00:32:37.342Z,6.60
2022-10-17T00:35:04.332Z,6.77
2022-10-17T00:37:32.005Z,6.93
2022-10-17T00:39:59.273Z,6.40
2022-10-17T00:42:27.141Z,6.47
2022-10-17T00:45:08.680Z,6.20
2022-10-17T00:47:36.536Z,7.40
2022-10-17T00:50:06.565Z,5.90
2022-10-17T00:52:33.937Z,6.27
2022-10-17T00:55:23.280Z,5.90
2022-10-17T00:57:50.828Z,6.10
2022-10-17T01:00:19.112Z,6.63
2022-10-17T01:02:45.952Z,6.60
2022-10-17T01:05:13.993Z,6.10
2022-10-17T01:07:44.015Z,5.53
2022-10-17T01:10:12.780Z,5.90
2022-10-17T01:12:59.613Z,5.73
2022-10-17T01:15:37.545Z,6.00
2022-10-17T01:18:13.656Z,5.57
2022-10-17T01:21:18.132Z,5.60
2022-10-17T01:24:12.763Z,5.97
2022-10-17T01:27:16.641Z,6.53
2022-10-17T01:29:46.284Z,5.60
2022-10-17T01:32:39.595Z,5.63
2022-10-17T01:35:18.330Z,5.57
2022-10-17T01:38:21.478Z,5.60
2022-10-17T01:40:56.454Z,5.43
2022-10-17T01:43:33.903Z,5.50
2022-10-17T01:46:34.331Z,6.20
2022-10-17T01:49:02.672Z,5.33
2022-10-17T01:51:38.373Z,5.80
2022-10-17T01:54:24.198Z,5.53
2022-10-17T01:56:56.079Z,6.13
2022-10-17T01:59:31.781Z,5.13
2022-10-17T02:01:59.363Z,6.30
2022-10-17T02:04:26.676Z,6.97
2022-10-17T02:06:53.259Z,6.60
2022-10-17T02:09:26.284Z,5.67
2022-10-17T02:12:20.697Z,5.27
2022-10-17T02:15:15.792Z,6.00
2022-10-17T02:18:07.333Z,6.43
2022-10-17T02:21:05.996Z,5.70
2022-10-17T02:23:42.029Z,6.77
2022-10-17T02:26:38.311Z,6.00
2022-10-17T02:29:29.198Z,5.83
2022-10-17T02:32:09.612Z,5.83
2022-10-17T02:34:41.275Z,6.07
2022-10-17T02:37:10.560Z,5.50
2022-10-17T02:39:39.509Z,6.23
2022-10-17T02:42:09.130Z,6.03
2022-10-17T02:44:40.137Z,5.97
2022-10-17T02:47:18.895Z,6.07
2022-10-17T02:49:51.655Z,6.53
2022-10-17T02:52:37.168Z,6.23
2022-10-17T02:55:40.785Z,5.77
2022-10-17T02:58:12.170Z,5.70
2022-10-17T03:00:40.520Z,5.67
2022-10-17T03:03:24.727Z,5.60
2022-10-17T03:05:52.391Z,5.77
2022-10-17T03:08:23.202Z,5.30
2022-10-17T03:10:50.463Z,7.30
2022-10-17T03:13:19.207Z,6.30
2022-10-17T03:15:46.645Z,5.53
2022-10-17T03:18:13.972Z,6.30
2022-10-17T03:20:40.574Z,5.60
2022-10-17T03:23:08.539Z,5.93
2022-10-17T03:25:35.889Z,6.23
2022-10-17T03:28:02.588Z,5.50
2022-10-17T03:30:29.363Z,5.97
2022-10-17T03:32:57.829Z,5.13
2022-10-17T03:35:24.896Z,5.23
2022-10-17T03:37:52.353Z,5.00
2022-10-17T03:40:21.123Z,5.00
2022-10-17T03:42:47.775Z,4.93
2022-10-17T03:45:14.553Z,5.30
2022-10-17T03:47:41.813Z,5.63
2022-10-17T03:50:09.336Z,5.97
2022-10-17T03:52:37.514Z,5.90
2022-10-17T03:55:04.477Z,5.50
2022-10-17T03:57:31.466Z,4.87
2022-10-17T03:59:58.817Z,4.90
2022-10-17T04:02:25.472Z,4.93
2022-10-17T04:04:52.255Z,5.53
2022-10-17T04:07:18.879Z,5.57
2022-10-17T04:09:47.668Z,5.27
2022-10-17T04:12:18.640Z,5.00
2022-10-17T04:14:45.229Z,4.87
2022-10-17T04:17:11.832Z,5.70
2022-10-17T04:19:38.877Z,5.87
2022-10-17T04:22:08.338Z,5.40
2022-10-17T04:24:37.088Z,4.97
2022-10-17T04:27:09.756Z,5.37
2022-10-17T04:29:40.330Z,5.57
2022-10-17T04:32:16.125Z,5.90
2022-10-17T04:34:50.111Z,5.90
2022-10-17T04:37:17.961Z,5.00
2022-10-17T04:39:46.113Z,6.37
2022-10-17T04:42:12.736Z,5.20
2022-10-17T04:44:40.069Z,5.80
2022-10-17T04:47:08.305Z,5.87
2022-10-17T04:49:34.974Z,5.10
2022-10-17T04:52:08.546Z,5.13
2022-10-17T04:54:42.133Z,5.20
2022-10-17T04:57:10.382Z,6.10
2022-10-17T04:59:38.737Z,5.47
2022-10-17T05:02:16.008Z,5.60
2022-10-17T05:04:42.679Z,5.20
2022-10-17T05:07:10.904Z,5.90
2022-10-17T05:09:46.508Z,5.13
2022-10-17T05:12:13.200Z,5.77
2022-10-17T05:14:43.292Z,5.63
2022-10-17T05:17:09.900Z,5.70
2022-10-17T05:19:37.156Z,5.80
2022-10-17T05:22:04.664Z,5.30
2022-10-17T05:24:31.264Z,5.90
2022-10-17T05:26:58.051Z,5.03
2022-10-17T05:29:24.693Z,5.27
2022-10-17T05:31:57.736Z,5.40
2022-10-17T05:34:24.997Z,5.50
2022-10-17T05:36:51.838Z,5.13
2022-10-17T05:39:23.169Z,5.20
2022-10-17T05:41:52.315Z,4.93
2022-10-17T05:44:18.921Z,5.00
2022-10-17T05:46:51.527Z,5.47
2022-10-17T05:49:31.936Z,5.00
2022-10-17T05:52:00.439Z,5.37
2022-10-17T05:54:27.810Z,5.87
2022-10-17T05:56:56.367Z,5.63
2022-10-17T05:59:27.763Z,5.73
2022-10-17T06:02:06.770Z,4.67
2022-10-17T06:04:34.519Z,5.43
2022-10-17T06:07:02.242Z,5.37
2022-10-17T06:09:30.660Z,5.33
2022-10-17T06:11:57.277Z,5.63
2022-10-17T06:14:23.879Z,5.40
2022-10-17T06:16:53.660Z,5.53
2022-10-17T06:19:20.266Z,5.90
2022-10-17T06:21:47.096Z,4.67
2022-10-17T06:24:17.737Z,5.73
2022-10-17T06:26:44.422Z,5.00
2022-10-17T06:29:13.432Z,5.20
2022-10-17T06:31:45.393Z,5.80
2022-10-17T06:34:12.134Z,4.77
2022-10-17T06:36:40.183Z,4.80
2022-10-17T06:39:07.978Z,5.20
2022-10-17T06:41:51.722Z,5.57
2022-10-17T06:44:19.681Z,5.23
2022-10-17T06:47:05.201Z,4.97
2022-10-17T06:49:34.133Z,5.67
2022-10-17T06:52:24.927Z,5.27
2022-10-17T06:55:21.339Z,4.67
2022-10-17T06:58:01.805Z,4.80
2022-10-17T07:00:48.743Z,5.37
2022-10-17T07:03:16.769Z,5.20
2022-10-17T07:05:50.788Z,4.70
2022-10-17T07:08:17.432Z,4.70
2022-10-17T07:10:44.307Z,4.30
2022-10-17T07:13:10.984Z,5.30
2022-10-17T07:15:38.034Z,4.97
2022-10-17T07:18:05.828Z,4.73
2022-10-17T07:20:32.788Z,4.80
2022-10-17T07:22:59.351Z,4.83
2022-10-17T07:25:25.995Z,4.23
2022-10-17T07:27:57.275Z,5.07
2022-10-17T07:30:24.475Z,4.20
2022-10-17T07:33:02.153Z,4.67
2022-10-17T07:35:28.845Z,4.93
2022-10-17T07:37:56.162Z,4.60
2022-10-17T07:40:22.779Z,4.40
2022-10-17T07:42:49.449Z,4.33
2022-10-17T07:45:16.435Z,4.20
2022-10-17T07:47:43.997Z,4.27
2022-10-17T07:50:13.339Z,4.40
2022-10-17T07:52:39.931Z,4.83
2022-10-17T07:55:07.747Z,4.70
2022-10-17T07:57:34.364Z,4.73
2022-10-17T08:00:00.938Z,4.50
2022-10-17T08:02:28.421Z,4.30
2022-10-17T08:04:55.277Z,4.20
2022-10-17T08:07:26.842Z,4.37
2022-10-17T08:09:56.029Z,4.13
2022-10-17T08:12:22.833Z,4.80
2022-10-17T08:14:49.421Z,4.40
2022-10-17T08:17:15.992Z,3.87
2022-10-17T08:19:42.563Z,4.23
2022-10-17T08:22:09.438Z,4.63
2022-10-17T08:24:36.156Z,4.47
2022-10-17T08:27:03.848Z,3.77
2022-10-17T08:29:32.630Z,3.97
2022-10-17T08:32:01.380Z,4.60
2022-10-17T08:34:29.026Z,3.93
2022-10-17T08:36:55.677Z,3.77
2022-10-17T08:39:22.357Z,4.00
2022-10-17T08:42:03.158Z,4.03
2022-10-17T08:44:51.293Z,3.63
2022-10-17T08:47:34.779Z,4.27
2022-10-17T08:50:05.756Z,3.67
2022-10-17T08:52:56.852Z,3.70
2022-10-17T08:55:42.790Z,3.70
2022-10-17T08:58:19.896Z,4.13
2022-10-17T09:01:13.031Z,4.03
2022-10-17T09:03:59.327Z,4.50
2022-10-17T09:06:32.317Z,4.17
2022-10-17T09:09:01.591Z,4.47
2022-10-17T09:11:56.559Z,4.20
2022-10-17T09:14:47.858Z,3.50
2022-10-17T09:17:56.981Z,4.03
2022-10-17T09:20:46.889Z,3.37
2022-10-17T09:23:18.357Z,4.30
2022-10-17T09:25:47.997Z,3.80
2022-10-17T09:28:20.959Z,4.40
2022-10-17T09:31:18.591Z,4.20
2022-10-17T09:33:54.403Z,3.87
2022-10-17T09:36:27.133Z,3.90
2022-10-17T09:38:56.552Z,4.20
2022-10-17T09:41:47.438Z,4.00
2022-10-17T09:44:15.983Z,4.23
2022-10-17T09:46:51.693Z,4.27
2022-10-17T09:49:26.032Z,4.07
2022-10-17T09:51:53.191Z,3.83
2022-10-17T09:54:34.073Z,4.07
2022-10-17T09:57:11.304Z,3.67
2022-10-17T09:59:38.966Z,4.00
2022-10-17T10:02:23.839Z,3.47
2022-10-17T10:05:04.565Z,3.90
2022-10-17T10:07:37.379Z,3.83
2022-10-17T10:10:25.443Z,4.00
2022-10-17T10:13:12.467Z,4.10
2022-10-17T10:15:41.464Z,4.47
2022-10-17T10:18:26.487Z,3.97
2022-10-17T10:21:13.153Z,3.57
2022-10-17T10:23:42.600Z,4.00
2022-10-17T10:26:23.045Z,4.40
2022-10-17T10:28:57.896Z,4.10
2022-10-17T10:31:34.524Z,4.20
2022-10-17T10:34:13.117Z,3.50
2022-10-17T10:36:58.028Z,4.30
2022-10-17T10:39:31.819Z,4.00
2022-10-17T10:42:01.051Z,4.50
2022-10-17T10:44:30.712Z,3.57
2022-10-17T10:47:26.517Z,4.03
2022-10-17T10:50:27.620Z,3.80
2022-10-17T10:53:35.218Z,3.40
2022-10-17T10:56:29.729Z,3.97
2022-10-17T10:59:09.264Z,3.57
2022-10-17T11:02:02.298Z,3.90
2022-10-17T11:04:44.493Z,3.53
2022-10-17T11:07:23.716Z,3.67
2022-10-17T11:09:53.261Z,4.60
2022-10-17T11:12:22.786Z,4.00
2022-10-17T11:15:15.728Z,4.50
2022-10-17T11:17:51.031Z,4.10
2022-10-17T11:20:39.098Z,4.30
2022-10-17T11:23:24.432Z,4.90
2022-10-17T11:25:52.744Z,3.80
2022-10-17T11:28:21.815Z,4.67
2022-10-17T11:31:05.835Z,4.30
2022-10-17T11:33:43.829Z,5.43
2022-10-17T11:36:11.139Z,4.60
2022-10-17T11:39:08.747Z,4.33
2022-10-17T11:41:46.035Z,4.67
2022-10-17T11:44:27.244Z,4.00
2022-10-17T11:47:00.367Z,3.90
2022-10-17T11:49:46.942Z,4.70
2022-10-17T11:52:55.812Z,3.93
2022-10-17T11:55:26.505Z,4.40
2022-10-17T11:58:17.379Z,4.37
2022-10-17T12:01:05.677Z,4.40
2022-10-17T12:03:57.321Z,4.00
2022-10-17T12:06:56.268Z,4.30
2022-10-17T12:09:40.837Z,4.97
2022-10-17T12:12:08.113Z,3.80
2022-10-17T12:14:37.950Z,4.47
2022-10-17T12:17:20.782Z,4.90
2022-10-17T12:19:47.505Z,4.40
2022-10-17T12:22:20.578Z,4.40
2022-10-17T12:25:04.125Z,4.60
2022-10-17T12:27:43.498Z,4.70
2022-10-17T12:30:16.479Z,4.73
2022-10-17T12:33:23.607Z,4.70
2022-10-17T12:36:04.090Z,4.50
2022-10-17T12:38:30.720Z,5.43
2022-10-17T12:41:00.759Z,3.93
2022-10-17T12:43:27.297Z,4.90
2022-10-17T12:46:00.336Z,5.10
2022-10-17T12:48:41.983Z,5.20
2022-10-17T12:51:36.505Z,4.83
2022-10-17T12:54:15.679Z,4.67
2022-10-17T12:56:48.441Z,4.70
2022-10-17T12:59:21.871Z,5.20
2022-10-17T13:01:52.990Z,5.07
2022-10-17T13:04:20.332Z,5.20
2022-10-17T13:06:52.974Z,4.87
2022-10-17T13:09:26.916Z,4.33
2022-10-17T13:11:55.084Z,4.90
2022-10-17T13:14:24.431Z,4.70
2022-10-17T13:16:59.855Z,5.50
2022-10-17T13:19:41.987Z,4.97
2022-10-17T13:22:24.108Z,4.27
2022-10-17T13:24:52.769Z,4.37
2022-10-17T13:27:27.761Z,4.40
2022-10-17T13:29:56.502Z,5.13
2022-10-17T13:32:25.215Z,5.80
2022-10-17T13:35:10.135Z,5.07
2022-10-17T13:37:38.945Z,5.10
2022-10-17T13:40:22.940Z,4.47
2022-10-17T13:42:56.225Z,4.80
2022-10-17T13:45:29.031Z,4.50
2022-10-17T13:47:57.289Z,4.47
2022-10-17T13:50:44.202Z,5.07
2022-10-17T13:53:49.815Z,4.53
2022-10-17T13:56:28.879Z,5.03
2022-10-17T13:59:03.379Z,5.33
2022-10-17T14:01:30.683Z,4.60
2022-10-17T14:04:08.276Z,4.60
2022-10-17T14:06:47.932Z,5.13
2022-10-17T14:09:27.767Z,5.10
2022-10-17T14:12:02.395Z,5.07
2022-10-17T14:14:32.151Z,5.10
2022-10-17T14:17:20.309Z,5.10
2022-10-17T14:20:16.418Z,4.80
2022-10-17T14:22:50.632Z,4.40
2022-10-17T14:25:37.658Z,4.73
2022-10-17T14:28:14.664Z,5.70
2022-10-17T14:30:56.173Z,4.63
2022-10-17T14:33:28.264Z,4.50
2022-10-17T14:35:57.314Z,5.30
2022-10-17T14:38:24.894Z,4.70
2022-10-17T14:41:30.612Z,4.90
2022-10-17T14:44:03.652Z,4.70
2022-10-17T14:46:30.687Z,3.47
2022-10-17T14:49:04.786Z,4.20
2022-10-17T14:51:40.219Z,5.03
2022-10-17T14:54:19.799Z,4.80
2022-10-17T14:56:53.807Z,5.30
2022-10-17T14:59:51.476Z,4.57
2022-10-17T15:02:11.458Z,4.60
2022-10-17T15:04:38.034Z,4.87
2022-10-17T15:07:04.648Z,5.13
2022-10-17T15:09:31.347Z,4.50
2022-10-17T15:12:02.533Z,4.67
2022-10-17T15:14:29.215Z,4.83
2022-10-17T15:16:56.015Z,4.83
2022-10-17T15:19:22.687Z,4.20
2022-10-17T15:21:49.284Z,4.30
2022-10-17T15:24:16.018Z,4.03
2022-10-17T15:26:42.851Z,3.90
2022-10-17T15:29:14.719Z,3.70
2022-10-17T15:31:41.606Z,4.73
2022-10-17T15:34:08.187Z,4.37
2022-10-17T15:36:40.352Z,4.60
2022-10-17T15:39:07.220Z,4.60
2022-10-17T15:41:33.959Z,3.90
2022-10-17T15:44:00.726Z,4.10
2022-10-17T15:46:32.283Z,4.57
2022-10-17T15:49:03.348Z,3.40
2022-10-17T15:51:30.084Z,4.37
2022-10-17T15:53:56.658Z,3.90
2022-10-17T15:56:27.789Z,4.10
2022-10-17T15:58:54.697Z,4.30
2022-10-17T16:01:24.675Z,5.23
2022-10-17T16:03:51.643Z,5.17
2022-10-17T16:06:19.540Z,4.30
2022-10-17T16:08:46.933Z,4.07
2022-10-17T16:11:26.178Z,3.67
2022-10-17T16:13:55.539Z,3.93
2022-10-17T16:16:22.696Z,3.93
2022-10-17T16:18:49.426Z,3.57
2022-10-17T16:21:17.491Z,3.53
2022-10-17T16:23:44.936Z,3.20
2022-10-17T16:26:15.749Z,4.70
2022-10-17T16:28:46.181Z,4.37
2022-10-17T16:31:20.026Z,3.77
2022-10-17T16:33:47.748Z,3.90
2022-10-17T16:36:14.768Z,4.40
2022-10-17T16:38:41.404Z,4.47
2022-10-17T16:41:36.061Z,4.30
2022-10-17T16:44:05.449Z,5.63
2022-10-17T16:46:33.155Z,5.10
2022-10-17T16:48:59.894Z,5.80
2022-10-17T16:51:26.542Z,5.30
2022-10-17T16:53:54.504Z,6.13
2022-10-17T16:56:23.038Z,5.50
2022-10-17T16:58:51.056Z,5.80
2022-10-17T17:01:21.067Z,6.13
2022-10-17T17:03:47.975Z,6.30
2022-10-17T17:06:19.068Z,7.43
2022-10-17T17:08:46.109Z,6.70
2022-10-17T17:11:16.456Z,6.23
2022-10-17T17:13:43.377Z,7.20
2022-10-17T17:16:17.543Z,7.53
2022-10-17T17:18:45.889Z,7.50
2022-10-17T17:21:13.890Z,6.80
2022-10-17T17:23:41.985Z,7.30
2022-10-17T17:26:15.400Z,7.50
2022-10-17T17:28:42.656Z,7.50
2022-10-17T17:31:16.379Z,8.30
2022-10-17T17:33:43.419Z,8.37
2022-10-17T17:36:14.009Z,8.80
2022-10-17T17:38:41.208Z,9.10
2022-10-17T17:41:07.906Z,9.00
2022-10-17T17:43:35.631Z,10.00
2022-10-17T17:46:02.607Z,9.97
2022-10-17T17:48:29.452Z,10.17
2022-10-17T17:50:56.102Z,10.60
2022-10-17T17:53:22.745Z,9.97
2022-10-17T17:56:01.243Z,11.20
2022-10-17T17:58:27.880Z,10.47
2022-10-17T18:00:54.640Z,11.77
2022-10-17T18:03:21.265Z,10.70
2022-10-17T18:05:47.890Z,11.27
2022-10-17T18:08:14.464Z,9.60
2022-10-17T18:10:41.052Z,10.40
2022-10-17T18:13:07.646Z,10.30
2022-10-17T18:15:34.220Z,12.23
2022-10-17T18:18:00.824Z,9.97
2022-10-17T18:20:27.633Z,11.03
2022-10-17T18:22:54.198Z,10.53
2022-10-17T18:25:20.805Z,10.00
2022-10-17T18:27:47.948Z,10.23
2022-10-17T18:30:14.667Z,9.47
2022-10-17T18:32:41.316Z,10.27
2022-10-17T18:35:08.220Z,10.43
2022-10-17T18:37:34.914Z,10.43
2022-10-17T18:40:02.944Z,9.97
2022-10-17T18:42:29.915Z,10.60
2022-10-17T18:44:56.705Z,10.80
2022-10-17T18:47:23.316Z,15.70
2022-10-17T18:49:50.244Z,21.07
2022-10-17T18:52:16.869Z,14.63
2022-10-17T18:54:43.427Z,11.40
2022-10-17T18:57:10.000Z,11.27
2022-10-17T18:59:37.838Z,13.10
2022-10-17T19:02:04.607Z,12.77
2022-10-17T19:04:31.243Z,12.67
2022-10-17T19:06:57.817Z,14.20
2022-10-17T19:09:24.471Z,13.83
2022-10-17T19:11:51.136Z,13.23
2022-10-17T19:14:17.802Z,13.73
2022-10-17T19:16:48.073Z,26.87
2022-10-17T19:19:17.677Z,20.00
2022-10-17T19:21:44.705Z,17.87
2022-10-17T19:24:17.156Z,17.00
2022-10-17T19:26:45.546Z,14.80
2022-10-17T19:29:16.797Z,13.17
2022-10-17T19:31:49.179Z,14.57
2022-10-17T19:34:17.359Z,15.50
2022-10-17T19:36:44.587Z,15.73
2022-10-17T19:39:15.321Z,15.37
2022-10-17T19:41:43.871Z,13.37
2022-10-17T19:44:10.917Z,15.17
2022-10-17T19:46:38.450Z,15.70
2022-10-17T19:49:05.948Z,15.23
2022-10-17T19:51:33.445Z,15.40
2022-10-17T19:54:01.128Z,16.63
2022-10-17T19:56:30.218Z,16.07
2022-10-17T19:58:57.697Z,17.03
2022-10-17T20:01:27.166Z,15.20
2022-10-17T20:03:54.517Z,15.90
2022-10-17T20:06:21.968Z,16.40
2022-10-17T20:08:49.049Z,15.63
2022-10-17T20:11:19.179Z,16.33
2022-10-17T20:13:45.962Z,17.77
2022-10-17T20:16:18.797Z,17.03
2022-10-17T20:18:45.416Z,18.07
2022-10-17T20:21:14.931Z,17.50
2022-10-17T20:23:42.399Z,18.50
2022-10-17T20:29:03.643Z,18.10
2022-10-17T20:31:30.752Z,18.50
2022-10-17T20:33:58.756Z,17.90
2022-10-17T20:36:25.880Z,18.30
2022-10-17T20:38:54.293Z,18.10
2022-10-17T20:41:21.452Z,19.20
2022-10-17T20:43:51.219Z,17.27
2022-10-17T20:46:29.754Z,17.27
2022-10-17T20:49:02.772Z,18.30
2022-10-17T20:51:29.424Z,18.40
2022-10-17T20:56:31.014Z,17.67
2022-10-17T20:59:03.332Z,16.70
2022-10-17T21:01:32.474Z,18.27
2022-10-17T21:04:10.546Z,15.23
2022-10-17T21:06:48.022Z,14.80
2022-10-17T21:09:15.167Z,15.80
2022-10-17T21:11:43.016Z,15.33
2022-10-17T21:14:10.981Z,14.37
2022-10-17T21:16:39.385Z,15.73
2022-10-17T21:19:06.328Z,15.20
2022-10-17T21:21:35.400Z,15.70
2022-10-17T21:24:07.643Z,15.23
2022-10-17T21:26:35.792Z,12.77
2022-10-17T21:29:05.586Z,12.57
2022-10-17T21:31:37.679Z,12.10
2022-10-17T21:34:11.121Z,13.13
2022-10-17T21:36:38.449Z,10.80
2022-10-17T21:39:05.346Z,9.20
2022-10-17T21:41:32.776Z,8.30
2022-10-17T21:44:05.411Z,8.83
2022-10-17T21:46:32.672Z,9.30
2022-10-17T21:49:00.363Z,9.40
2022-10-17T21:51:27.830Z,7.90
2022-10-17T21:53:56.040Z,8.30
2022-10-17T21:56:27.840Z,8.60
2022-10-17T21:58:54.903Z,11.10
2022-10-17T22:01:30.305Z,11.07
2022-10-17T22:04:00.615Z,9.20
2022-10-17T22:06:45.039Z,8.40
2022-10-17T22:09:24.371Z,9.27
2022-10-17T22:11:54.387Z,9.07
2022-10-17T22:14:23.262Z,9.70
2022-10-17T22:16:50.365Z,10.13
2022-10-17T22:19:20.580Z,12.70
2022-10-17T22:21:47.284Z,12.10
2022-10-17T22:24:16.148Z,11.30
2022-10-17T22:26:44.475Z,12.20
2022-10-17T22:29:11.871Z,13.10
2022-10-17T22:31:38.754Z,14.13
2022-10-17T22:34:07.013Z,14.60
2022-10-17T22:36:34.930Z,12.70
2022-10-17T22:39:01.581Z,11.63
2022-10-17T22:41:28.436Z,12.30
2022-10-17T22:43:55.056Z,12.70
2022-10-17T22:46:21.722Z,12.23
2022-10-17T22:48:48.382Z,12.70
2022-10-17T22:51:15.049Z,10.93
2022-10-17T22:53:41.698Z,11.23
2022-10-17T22:56:14.590Z,12.20
2022-10-17T22:58:41.704Z,11.70
2022-10-17T23:01:13.561Z,11.43
2022-10-17T23:03:40.812Z,11.70
2022-10-17T23:06:07.833Z,11.57
2022-10-17T23:08:34.699Z,12.17
2022-10-17T23:11:01.462Z,12.20
2022-10-17T23:13:28.053Z,12.37
2022-10-17T23:15:56.288Z,12.67
2022-10-17T23:18:24.357Z,12.77
2022-10-17T23:20:51.666Z,11.17
2022-10-17T23:23:18.814Z,11.37
2022-10-17T23:25:46.155Z,11.07
2022-10-17T23:28:13.049Z,11.20
2022-10-17T23:30:40.043Z,10.93
2022-10-17T23:33:07.207Z,9.87
2022-10-17T23:35:35.335Z,11.60
2022-10-17T23:38:01.944Z,10.43
2022-10-17T23:40:28.504Z,9.70
2022-10-17T23:42:55.091Z,9.60
2022-10-17T23:45:22.012Z,9.90
2022-10-17T23:47:48.735Z,9.47
2022-10-17T23:50:16.241Z,9.20
2022-10-17T23:52:42.833Z,8.93
2022-10-17T23:55:09.959Z,8.10
2022-10-17T23:57:36.520Z,8.37
